sensor_id;sensor_type;location;lat;lon;timestamp;temperature;humidity
61016;DHT22;46902;52.920;6.536;2024-02-21T00:00:40;9.60;99.90
61016;DHT22;46902;52.920;6.536;2024-02-21T00:03:07;9.60;99.90
61016;DHT22;46902;52.920;6.536;2024-02-21T00:05:32;9.60;99.90
61016;DHT22;46902;52.920;6.536;2024-02-21T00:08:02;9.60;99.90
61016;DHT22;46902;52.920;6.536;2024-02-21T00:10:28;9.50;99.90
61016;DHT22;46902;52.920;6.536;2024-02-21T00:12:54;9.50;99.90
61016;DHT22;46902;52.920;6.536;2024-02-21T00:15:20;9.50;99.90
61016;DHT22;46902;52.920;6.536;2024-02-21T00:17:46;9.50;99.90
61016;DHT22;46902;52.920;6.536;2024-02-21T00:20:12;9.50;99.90
61016;DHT22;46902;52.920;6.536;2024-02-21T00:22:38;9.50;99.90
61016;DHT22;46902;52.920;6.536;2024-02-21T00:25:03;9.50;99.90
61016;DHT22;46902;52.920;6.536;2024-02-21T00:27:29;9.50;99.90
61016;DHT22;46902;52.920;6.536;2024-02-21T00:29:55;9.50;99.90
61016;DHT22;46902;52.920;6.536;2024-02-21T00:32:20;9.50;99.90
61016;DHT22;46902;52.920;6.536;2024-02-21T00:34:46;9.50;99.90
61016;DHT22;46902;52.920;6.536;2024-02-21T00:37:12;9.50;99.90
61016;DHT22;46902;52.920;6.536;2024-02-21T00:39:37;9.50;99.90
61016;DHT22;46902;52.920;6.536;2024-02-21T00:42:03;9.50;99.90
61016;DHT22;46902;52.920;6.536;2024-02-21T00:44:29;9.50;99.90
61016;DHT22;46902;52.920;6.536;2024-02-21T00:46:54;9.50;99.90
61016;DHT22;46902;52.920;6.536;2024-02-21T00:49:21;9.50;99.90
61016;DHT22;46902;52.920;6.536;2024-02-21T00:51:47;9.50;99.90
61016;DHT22;46902;52.920;6.536;2024-02-21T00:54:13;9.50;99.90
61016;DHT22;46902;52.920;6.536;2024-02-21T00:56:38;9.50;99.90
61016;DHT22;46902;52.920;6.536;2024-02-21T00:59:04;9.40;99.90
61016;DHT22;46902;52.920;6.536;2024-02-21T01:01:30;9.40;99.90
61016;DHT22;46902;52.920;6.536;2024-02-21T01:03:55;9.40;99.90
61016;DHT22;46902;52.920;6.536;2024-02-21T01:06:21;9.40;99.90
61016;DHT22;46902;52.920;6.536;2024-02-21T01:08:47;9.40;99.90
61016;DHT22;46902;52.920;6.536;2024-02-21T01:11:14;9.40;99.90
61016;DHT22;46902;52.920;6.536;2024-02-21T01:13:39;9.30;99.90
61016;DHT22;46902;52.920;6.536;2024-02-21T01:16:06;9.30;99.90
61016;DHT22;46902;52.920;6.536;2024-02-21T01:18:38;9.30;99.90
61016;DHT22;46902;52.920;6.536;2024-02-21T01:21:07;9.20;99.90
61016;DHT22;46902;52.920;6.536;2024-02-21T01:23:37;9.30;99.90
61016;DHT22;46902;52.920;6.536;2024-02-21T01:26:03;9.20;99.90
61016;DHT22;46902;52.920;6.536;2024-02-21T01:28:29;9.30;99.90
61016;DHT22;46902;52.920;6.536;2024-02-21T01:30:56;9.20;99.90
61016;DHT22;46902;52.920;6.536;2024-02-21T01:33:22;9.20;99.90
61016;DHT22;46902;52.920;6.536;2024-02-21T01:35:47;9.20;99.90
61016;DHT22;46902;52.920;6.536;2024-02-21T01:38:13;9.20;99.90
61016;DHT22;46902;52.920;6.536;2024-02-21T01:40:38;9.10;99.90
61016;DHT22;46902;52.920;6.536;2024-02-21T01:43:16;9.10;99.90
61016;DHT22;46902;52.920;6.536;2024-02-21T01:45:42;9.20;99.90
61016;DHT22;46902;52.920;6.536;2024-02-21T01:48:07;9.10;99.90
61016;DHT22;46902;52.920;6.536;2024-02-21T01:50:33;9.10;99.90
61016;DHT22;46902;52.920;6.536;2024-02-21T01:52:59;9.10;99.90
61016;DHT22;46902;52.920;6.536;2024-02-21T01:55:25;9.00;99.90
61016;DHT22;46902;52.920;6.536;2024-02-21T01:57:51;9.00;99.90
61016;DHT22;46902;52.920;6.536;2024-02-21T02:00:17;9.00;99.90
61016;DHT22;46902;52.920;6.536;2024-02-21T02:02:44;9.00;99.90
61016;DHT22;46902;52.920;6.536;2024-02-21T02:05:11;9.00;99.90
61016;DHT22;46902;52.920;6.536;2024-02-21T02:07:37;8.90;99.90
61016;DHT22;46902;52.920;6.536;2024-02-21T02:10:03;8.90;99.90
61016;DHT22;46902;52.920;6.536;2024-02-21T02:12:29;8.90;99.90
61016;DHT22;46902;52.920;6.536;2024-02-21T02:15:02;8.80;99.90
61016;DHT22;46902;52.920;6.536;2024-02-21T02:17:31;8.80;99.90
61016;DHT22;46902;52.920;6.536;2024-02-21T02:19:57;8.90;99.90
61016;DHT22;46902;52.920;6.536;2024-02-21T02:22:25;8.80;99.90
61016;DHT22;46902;52.920;6.536;2024-02-21T02:24:53;8.80;99.90
61016;DHT22;46902;52.920;6.536;2024-02-21T02:27:19;8.80;99.90
61016;DHT22;46902;52.920;6.536;2024-02-21T02:29:45;8.80;99.90
61016;DHT22;46902;52.920;6.536;2024-02-21T02:32:11;8.90;99.90
61016;DHT22;46902;52.920;6.536;2024-02-21T02:34:37;8.80;99.90
61016;DHT22;46902;52.920;6.536;2024-02-21T02:37:03;8.80;99.90
61016;DHT22;46902;52.920;6.536;2024-02-21T02:39:28;8.80;99.90
61016;DHT22;46902;52.920;6.536;2024-02-21T02:41:54;8.80;99.90
61016;DHT22;46902;52.920;6.536;2024-02-21T02:44:19;8.80;99.90
61016;DHT22;46902;52.920;6.536;2024-02-21T02:46:45;8.80;99.90
61016;DHT22;46902;52.920;6.536;2024-02-21T02:49:11;8.80;99.90
61016;DHT22;46902;52.920;6.536;2024-02-21T02:51:36;8.80;99.90
61016;DHT22;46902;52.920;6.536;2024-02-21T02:54:02;8.80;99.90
61016;DHT22;46902;52.920;6.536;2024-02-21T02:56:28;8.80;99.90
61016;DHT22;46902;52.920;6.536;2024-02-21T02:58:54;8.80;99.90
61016;DHT22;46902;52.920;6.536;2024-02-21T03:01:19;8.80;99.90
61016;DHT22;46902;52.920;6.536;2024-02-21T03:03:45;8.80;99.90
61016;DHT22;46902;52.920;6.536;2024-02-21T03:06:12;8.80;99.90
61016;DHT22;46902;52.920;6.536;2024-02-21T03:08:38;8.80;99.90
61016;DHT22;46902;52.920;6.536;2024-02-21T03:11:05;8.80;99.90
61016;DHT22;46902;52.920;6.536;2024-02-21T03:13:31;8.80;99.90
61016;DHT22;46902;52.920;6.536;2024-02-21T03:15:56;8.80;99.90
61016;DHT22;46902;52.920;6.536;2024-02-21T03:18:22;8.80;99.90
61016;DHT22;46902;52.920;6.536;2024-02-21T03:20:47;8.80;99.90
61016;DHT22;46902;52.920;6.536;2024-02-21T03:23:13;8.80;99.90
61016;DHT22;46902;52.920;6.536;2024-02-21T03:25:39;8.80;99.90
61016;DHT22;46902;52.920;6.536;2024-02-21T03:28:04;8.80;99.90
61016;DHT22;46902;52.920;6.536;2024-02-21T03:30:30;8.80;99.90
61016;DHT22;46902;52.920;6.536;2024-02-21T03:32:56;8.80;99.90
61016;DHT22;46902;52.920;6.536;2024-02-21T03:35:21;8.90;99.90
61016;DHT22;46902;52.920;6.536;2024-02-21T03:37:47;8.90;99.90
61016;DHT22;46902;52.920;6.536;2024-02-21T03:40:13;8.90;99.90
61016;DHT22;46902;52.920;6.536;2024-02-21T03:42:38;8.90;99.90
61016;DHT22;46902;52.920;6.536;2024-02-21T03:45:04;8.90;99.90
61016;DHT22;46902;52.920;6.536;2024-02-21T03:47:30;8.80;99.90
61016;DHT22;46902;52.920;6.536;2024-02-21T03:49:56;8.80;99.90
61016;DHT22;46902;52.920;6.536;2024-02-21T03:52:21;8.80;99.90
61016;DHT22;46902;52.920;6.536;2024-02-21T03:54:47;8.90;99.90
61016;DHT22;46902;52.920;6.536;2024-02-21T03:57:13;8.80;99.90
61016;DHT22;46902;52.920;6.536;2024-02-21T03:59:38;8.90;99.90
61016;DHT22;46902;52.920;6.536;2024-02-21T04:02:05;8.80;99.90
61016;DHT22;46902;52.920;6.536;2024-02-21T04:04:37;8.80;99.90
61016;DHT22;46902;52.920;6.536;2024-02-21T04:07:03;8.80;99.90
61016;DHT22;46902;52.920;6.536;2024-02-21T04:09:35;8.90;99.90
61016;DHT22;46902;52.920;6.536;2024-02-21T04:12:01;8.80;99.90
61016;DHT22;46902;52.920;6.536;2024-02-21T04:14:26;8.80;99.90
61016;DHT22;46902;52.920;6.536;2024-02-21T04:16:52;8.80;99.90
61016;DHT22;46902;52.920;6.536;2024-02-21T04:19:17;8.70;99.90
61016;DHT22;46902;52.920;6.536;2024-02-21T04:21:43;8.80;99.90
61016;DHT22;46902;52.920;6.536;2024-02-21T04:24:10;8.80;99.90
61016;DHT22;46902;52.920;6.536;2024-02-21T04:26:36;8.80;99.90
61016;DHT22;46902;52.920;6.536;2024-02-21T04:29:01;8.80;99.90
61016;DHT22;46902;52.920;6.536;2024-02-21T04:31:27;8.80;99.90
61016;DHT22;46902;52.920;6.536;2024-02-21T04:33:53;8.80;99.90
61016;DHT22;46902;52.920;6.536;2024-02-21T04:36:18;8.80;99.90
61016;DHT22;46902;52.920;6.536;2024-02-21T04:38:44;8.80;99.90
61016;DHT22;46902;52.920;6.536;2024-02-21T04:41:10;8.80;99.90
61016;DHT22;46902;52.920;6.536;2024-02-21T04:43:35;8.80;99.90
61016;DHT22;46902;52.920;6.536;2024-02-21T04:46:01;8.80;99.90
61016;DHT22;46902;52.920;6.536;2024-02-21T04:48:27;8.80;99.90
61016;DHT22;46902;52.920;6.536;2024-02-21T04:50:52;8.80;99.90
61016;DHT22;46902;52.920;6.536;2024-02-21T04:53:18;8.70;99.90
61016;DHT22;46902;52.920;6.536;2024-02-21T04:55:44;8.80;99.90
61016;DHT22;46902;52.920;6.536;2024-02-21T04:58:09;8.80;99.90
61016;DHT22;46902;52.920;6.536;2024-02-21T05:00:35;8.80;99.90
61016;DHT22;46902;52.920;6.536;2024-02-21T05:03:01;8.80;99.90
61016;DHT22;46902;52.920;6.536;2024-02-21T05:05:26;8.80;99.90
61016;DHT22;46902;52.920;6.536;2024-02-21T05:07:52;8.80;99.90
61016;DHT22;46902;52.920;6.536;2024-02-21T05:10:17;8.80;99.90
61016;DHT22;46902;52.920;6.536;2024-02-21T05:12:44;8.80;99.90
61016;DHT22;46902;52.920;6.536;2024-02-21T05:15:10;8.80;99.90
61016;DHT22;46902;52.920;6.536;2024-02-21T05:17:36;8.80;99.90
61016;DHT22;46902;52.920;6.536;2024-02-21T05:20:01;8.80;99.90
61016;DHT22;46902;52.920;6.536;2024-02-21T05:22:27;8.80;99.90
61016;DHT22;46902;52.920;6.536;2024-02-21T05:24:53;8.80;99.90
61016;DHT22;46902;52.920;6.536;2024-02-21T05:27:18;8.80;99.90
61016;DHT22;46902;52.920;6.536;2024-02-21T05:29:44;8.70;99.90
61016;DHT22;46902;52.920;6.536;2024-02-21T05:32:10;8.80;99.90
61016;DHT22;46902;52.920;6.536;2024-02-21T05:34:35;8.80;99.90
61016;DHT22;46902;52.920;6.536;2024-02-21T05:37:01;8.80;99.90
61016;DHT22;46902;52.920;6.536;2024-02-21T05:39:26;8.80;99.90
61016;DHT22;46902;52.920;6.536;2024-02-21T05:41:54;8.80;99.90
61016;DHT22;46902;52.920;6.536;2024-02-21T05:44:20;8.80;99.90
61016;DHT22;46902;52.920;6.536;2024-02-21T05:46:47;8.80;99.90
61016;DHT22;46902;52.920;6.536;2024-02-21T05:49:13;8.80;99.90
61016;DHT22;46902;52.920;6.536;2024-02-21T05:51:38;8.80;99.90
61016;DHT22;46902;52.920;6.536;2024-02-21T05:54:04;8.80;99.90
61016;DHT22;46902;52.920;6.536;2024-02-21T05:56:30;8.90;99.90
61016;DHT22;46902;52.920;6.536;2024-02-21T05:58:55;8.90;99.90
61016;DHT22;46902;52.920;6.536;2024-02-21T06:01:21;8.90;99.90
61016;DHT22;46902;52.920;6.536;2024-02-21T06:03:47;8.80;99.90
61016;DHT22;46902;52.920;6.536;2024-02-21T06:06:13;8.90;99.90
61016;DHT22;46902;52.920;6.536;2024-02-21T06:08:40;8.80;99.90
61016;DHT22;46902;52.920;6.536;2024-02-21T06:11:06;8.80;99.90
61016;DHT22;46902;52.920;6.536;2024-02-21T06:13:31;8.80;99.90
61016;DHT22;46902;52.920;6.536;2024-02-21T06:15:57;8.80;99.90
61016;DHT22;46902;52.920;6.536;2024-02-21T06:18:23;8.80;99.90
61016;DHT22;46902;52.920;6.536;2024-02-21T06:20:48;8.80;99.90
61016;DHT22;46902;52.920;6.536;2024-02-21T06:23:15;8.80;99.90
61016;DHT22;46902;52.920;6.536;2024-02-21T06:25:42;8.80;99.90
61016;DHT22;46902;52.920;6.536;2024-02-21T06:28:07;8.80;99.90
61016;DHT22;46902;52.920;6.536;2024-02-21T06:30:33;8.80;99.90
61016;DHT22;46902;52.920;6.536;2024-02-21T06:32:59;8.80;99.90
61016;DHT22;46902;52.920;6.536;2024-02-21T06:35:25;8.80;99.90
61016;DHT22;46902;52.920;6.536;2024-02-21T06:37:51;8.90;99.90
61016;DHT22;46902;52.920;6.536;2024-02-21T06:40:19;8.90;99.90
61016;DHT22;46902;52.920;6.536;2024-02-21T06:42:45;8.80;99.90
61016;DHT22;46902;52.920;6.536;2024-02-21T06:45:10;8.80;99.90
61016;DHT22;46902;52.920;6.536;2024-02-21T06:47:36;8.80;99.90
61016;DHT22;46902;52.920;6.536;2024-02-21T06:50:02;8.80;99.90
61016;DHT22;46902;52.920;6.536;2024-02-21T06:52:28;8.70;99.90
61016;DHT22;46902;52.920;6.536;2024-02-21T06:54:53;8.80;99.90
61016;DHT22;46902;52.920;6.536;2024-02-21T06:57:19;8.80;99.90
61016;DHT22;46902;52.920;6.536;2024-02-21T06:59:44;8.80;99.90
61016;DHT22;46902;52.920;6.536;2024-02-21T07:02:10;8.70;99.90
61016;DHT22;46902;52.920;6.536;2024-02-21T07:04:35;8.70;99.90
61016;DHT22;46902;52.920;6.536;2024-02-21T07:07:01;8.80;99.90
61016;DHT22;46902;52.920;6.536;2024-02-21T07:09:27;8.70;99.90
61016;DHT22;46902;52.920;6.536;2024-02-21T07:11:54;8.70;99.90
61016;DHT22;46902;52.920;6.536;2024-02-21T07:14:19;8.80;99.90
61016;DHT22;46902;52.920;6.536;2024-02-21T07:16:45;8.80;99.90
61016;DHT22;46902;52.920;6.536;2024-02-21T07:19:11;8.80;99.90
61016;DHT22;46902;52.920;6.536;2024-02-21T07:21:36;8.80;99.90
61016;DHT22;46902;52.920;6.536;2024-02-21T07:24:07;8.80;99.90
61016;DHT22;46902;52.920;6.536;2024-02-21T07:26:33;8.70;99.90
61016;DHT22;46902;52.920;6.536;2024-02-21T07:28:58;8.80;99.90
61016;DHT22;46902;52.920;6.536;2024-02-21T07:31:24;8.80;99.90
61016;DHT22;46902;52.920;6.536;2024-02-21T07:33:49;8.80;99.90
61016;DHT22;46902;52.920;6.536;2024-02-21T07:36:16;8.80;99.90
61016;DHT22;46902;52.920;6.536;2024-02-21T07:38:49;8.80;99.90
61016;DHT22;46902;52.920;6.536;2024-02-21T07:41:15;8.80;99.90
61016;DHT22;46902;52.920;6.536;2024-02-21T07:43:40;8.80;99.90
61016;DHT22;46902;52.920;6.536;2024-02-21T07:46:06;8.80;99.90
61016;DHT22;46902;52.920;6.536;2024-02-21T07:48:31;8.80;99.90
61016;DHT22;46902;52.920;6.536;2024-02-21T07:50:57;8.70;99.90
61016;DHT22;46902;52.920;6.536;2024-02-21T07:53:22;8.80;99.90
61016;DHT22;46902;52.920;6.536;2024-02-21T07:55:48;8.80;99.90
61016;DHT22;46902;52.920;6.536;2024-02-21T07:58:13;8.70;99.90
61016;DHT22;46902;52.920;6.536;2024-02-21T08:00:39;8.70;99.90
61016;DHT22;46902;52.920;6.536;2024-02-21T08:03:05;8.70;99.90
61016;DHT22;46902;52.920;6.536;2024-02-21T08:05:30;8.80;99.90
61016;DHT22;46902;52.920;6.536;2024-02-21T08:07:56;8.70;99.90
61016;DHT22;46902;52.920;6.536;2024-02-21T08:10:21;8.70;99.90
61016;DHT22;46902;52.920;6.536;2024-02-21T08:12:47;8.80;99.90
61016;DHT22;46902;52.920;6.536;2024-02-21T08:15:12;8.70;99.90
61016;DHT22;46902;52.920;6.536;2024-02-21T08:17:38;8.70;99.90
61016;DHT22;46902;52.920;6.536;2024-02-21T08:20:05;8.70;99.90
61016;DHT22;46902;52.920;6.536;2024-02-21T08:22:30;8.70;99.90
61016;DHT22;46902;52.920;6.536;2024-02-21T08:24:56;8.80;99.90
61016;DHT22;46902;52.920;6.536;2024-02-21T08:27:22;8.80;99.90
61016;DHT22;46902;52.920;6.536;2024-02-21T08:29:47;8.80;99.90
61016;DHT22;46902;52.920;6.536;2024-02-21T08:32:13;8.70;99.90
61016;DHT22;46902;52.920;6.536;2024-02-21T08:34:38;8.70;99.90
61016;DHT22;46902;52.920;6.536;2024-02-21T08:37:04;8.80;99.90
61016;DHT22;46902;52.920;6.536;2024-02-21T08:39:30;8.90;99.90
61016;DHT22;46902;52.920;6.536;2024-02-21T08:41:56;8.80;99.90
61016;DHT22;46902;52.920;6.536;2024-02-21T08:44:23;8.80;99.90
61016;DHT22;46902;52.920;6.536;2024-02-21T08:46:51;8.90;99.90
61016;DHT22;46902;52.920;6.536;2024-02-21T08:49:16;8.80;99.90
61016;DHT22;46902;52.920;6.536;2024-02-21T08:51:42;8.80;99.90
61016;DHT22;46902;52.920;6.536;2024-02-21T08:54:08;8.80;99.90
61016;DHT22;46902;52.920;6.536;2024-02-21T08:56:34;8.80;99.90
61016;DHT22;46902;52.920;6.536;2024-02-21T08:59:01;8.80;99.90
61016;DHT22;46902;52.920;6.536;2024-02-21T09:01:27;8.80;99.90
61016;DHT22;46902;52.920;6.536;2024-02-21T09:03:52;8.80;99.90
61016;DHT22;46902;52.920;6.536;2024-02-21T09:06:19;8.80;99.90
61016;DHT22;46902;52.920;6.536;2024-02-21T09:08:45;8.80;99.90
61016;DHT22;46902;52.920;6.536;2024-02-21T09:11:11;8.80;99.90
61016;DHT22;46902;52.920;6.536;2024-02-21T09:13:37;8.80;99.90
61016;DHT22;46902;52.920;6.536;2024-02-21T09:16:02;8.70;99.90
61016;DHT22;46902;52.920;6.536;2024-02-21T09:18:29;8.80;99.90
61016;DHT22;46902;52.920;6.536;2024-02-21T09:20:55;8.80;99.90
61016;DHT22;46902;52.920;6.536;2024-02-21T09:23:23;8.80;99.90
61016;DHT22;46902;52.920;6.536;2024-02-21T09:25:49;8.80;99.90
61016;DHT22;46902;52.920;6.536;2024-02-21T09:28:14;8.80;99.90
61016;DHT22;46902;52.920;6.536;2024-02-21T09:30:40;8.80;99.90
61016;DHT22;46902;52.920;6.536;2024-02-21T09:33:05;8.80;99.90
61016;DHT22;46902;52.920;6.536;2024-02-21T09:35:32;8.80;99.90
61016;DHT22;46902;52.920;6.536;2024-02-21T09:37:59;8.80;99.90
61016;DHT22;46902;52.920;6.536;2024-02-21T09:40:25;8.90;99.90
61016;DHT22;46902;52.920;6.536;2024-02-21T09:43:02;8.90;99.90
61016;DHT22;46902;52.920;6.536;2024-02-21T09:45:33;8.90;99.90
61016;DHT22;46902;52.920;6.536;2024-02-21T09:48:25;8.90;99.90
61016;DHT22;46902;52.920;6.536;2024-02-21T09:50:55;8.90;99.90
61016;DHT22;46902;52.920;6.536;2024-02-21T09:53:22;8.90;99.90
61016;DHT22;46902;52.920;6.536;2024-02-21T09:55:50;9.00;99.90
61016;DHT22;46902;52.920;6.536;2024-02-21T09:58:16;9.00;99.90
61016;DHT22;46902;52.920;6.536;2024-02-21T10:00:42;9.00;99.90
61016;DHT22;46902;52.920;6.536;2024-02-21T10:03:08;9.10;99.90
61016;DHT22;46902;52.920;6.536;2024-02-21T10:05:37;9.10;99.90
61016;DHT22;46902;52.920;6.536;2024-02-21T10:08:04;9.10;99.90
61016;DHT22;46902;52.920;6.536;2024-02-21T10:10:39;9.10;99.90
61016;DHT22;46902;52.920;6.536;2024-02-21T10:13:05;9.20;99.90
61016;DHT22;46902;52.920;6.536;2024-02-21T10:15:31;9.20;99.90
61016;DHT22;46902;52.920;6.536;2024-02-21T10:18:01;9.30;99.90
61016;DHT22;46902;52.920;6.536;2024-02-21T10:20:29;9.30;99.90
61016;DHT22;46902;52.920;6.536;2024-02-21T10:23:05;9.40;99.90
61016;DHT22;46902;52.920;6.536;2024-02-21T10:25:35;9.30;99.90
61016;DHT22;46902;52.920;6.536;2024-02-21T10:28:02;9.30;99.90
61016;DHT22;46902;52.920;6.536;2024-02-21T10:30:28;9.40;99.90
61016;DHT22;46902;52.920;6.536;2024-02-21T10:32:54;9.40;99.90
61016;DHT22;46902;52.920;6.536;2024-02-21T10:35:31;9.40;99.90
61016;DHT22;46902;52.920;6.536;2024-02-21T10:37:57;9.40;99.90
61016;DHT22;46902;52.920;6.536;2024-02-21T10:40:27;9.30;99.90
61016;DHT22;46902;52.920;6.536;2024-02-21T10:43:00;9.40;99.90
61016;DHT22;46902;52.920;6.536;2024-02-21T10:45:30;9.40;99.90
61016;DHT22;46902;52.920;6.536;2024-02-21T10:48:13;9.40;99.90
61016;DHT22;46902;52.920;6.536;2024-02-21T10:54:22;9.50;99.90
61016;DHT22;46902;52.920;6.536;2024-02-21T10:56:43;9.50;99.90
61016;DHT22;46902;52.920;6.536;2024-02-21T10:59:09;9.40;99.90
61016;DHT22;46902;52.920;6.536;2024-02-21T11:01:35;9.50;99.90
61016;DHT22;46902;52.920;6.536;2024-02-21T11:04:08;9.50;99.90
61016;DHT22;46902;52.920;6.536;2024-02-21T11:06:36;9.50;99.90
61016;DHT22;46902;52.920;6.536;2024-02-21T11:09:03;9.50;99.90
61016;DHT22;46902;52.920;6.536;2024-02-21T11:11:32;9.40;99.90
61016;DHT22;46902;52.920;6.536;2024-02-21T11:14:26;9.50;99.90
61016;DHT22;46902;52.920;6.536;2024-02-21T11:16:52;9.50;99.90
61016;DHT22;46902;52.920;6.536;2024-02-21T11:19:23;9.40;99.90
61016;DHT22;46902;52.920;6.536;2024-02-21T11:21:50;9.50;99.90
61016;DHT22;46902;52.920;6.536;2024-02-21T11:24:34;9.50;99.90
61016;DHT22;46902;52.920;6.536;2024-02-21T11:27:14;9.50;99.90
61016;DHT22;46902;52.920;6.536;2024-02-21T11:29:42;9.50;99.90
61016;DHT22;46902;52.920;6.536;2024-02-21T11:32:10;9.50;99.90
61016;DHT22;46902;52.920;6.536;2024-02-21T11:34:36;9.50;99.90
61016;DHT22;46902;52.920;6.536;2024-02-21T11:37:02;9.50;99.90
61016;DHT22;46902;52.920;6.536;2024-02-21T11:39:37;9.50;99.90
61016;DHT22;46902;52.920;6.536;2024-02-21T11:42:06;9.50;99.90
61016;DHT22;46902;52.920;6.536;2024-02-21T11:44:34;9.50;99.90
61016;DHT22;46902;52.920;6.536;2024-02-21T11:46:59;9.50;99.90
61016;DHT22;46902;52.920;6.536;2024-02-21T11:49:26;9.50;99.90
61016;DHT22;46902;52.920;6.536;2024-02-21T11:51:59;9.50;99.90
61016;DHT22;46902;52.920;6.536;2024-02-21T11:54:26;9.50;99.90
61016;DHT22;46902;52.920;6.536;2024-02-21T11:56:52;9.50;99.90
61016;DHT22;46902;52.920;6.536;2024-02-21T11:59:18;9.50;99.90
61016;DHT22;46902;52.920;6.536;2024-02-21T12:01:44;9.60;99.90
61016;DHT22;46902;52.920;6.536;2024-02-21T12:04:10;9.50;99.90
61016;DHT22;46902;52.920;6.536;2024-02-21T12:06:36;9.50;99.90
61016;DHT22;46902;52.920;6.536;2024-02-21T12:09:01;9.50;99.90
61016;DHT22;46902;52.920;6.536;2024-02-21T12:11:27;9.60;99.90
61016;DHT22;46902;52.920;6.536;2024-02-21T12:14:03;9.60;99.90
61016;DHT22;46902;52.920;6.536;2024-02-21T12:16:31;9.60;99.90
61016;DHT22;46902;52.920;6.536;2024-02-21T12:18:58;9.60;99.90
61016;DHT22;46902;52.920;6.536;2024-02-21T12:21:31;9.60;99.90
61016;DHT22;46902;52.920;6.536;2024-02-21T12:23:58;9.60;99.90
61016;DHT22;46902;52.920;6.536;2024-02-21T12:26:24;9.60;99.90
61016;DHT22;46902;52.920;6.536;2024-02-21T12:28:51;9.70;99.90
61016;DHT22;46902;52.920;6.536;2024-02-21T12:31:16;9.70;99.90
61016;DHT22;46902;52.920;6.536;2024-02-21T12:33:43;9.70;99.90
61016;DHT22;46902;52.920;6.536;2024-02-21T12:36:08;9.80;99.90
61016;DHT22;46902;52.920;6.536;2024-02-21T12:38:35;9.80;99.90
61016;DHT22;46902;52.920;6.536;2024-02-21T12:41:01;9.70;99.90
61016;DHT22;46902;52.920;6.536;2024-02-21T12:43:27;9.70;99.90
61016;DHT22;46902;52.920;6.536;2024-02-21T12:45:52;9.70;99.90
61016;DHT22;46902;52.920;6.536;2024-02-21T12:48:18;9.70;99.90
61016;DHT22;46902;52.920;6.536;2024-02-21T12:50:53;9.60;99.90
61016;DHT22;46902;52.920;6.536;2024-02-21T12:53:19;9.60;99.90
61016;DHT22;46902;52.920;6.536;2024-02-21T12:55:47;9.60;99.90
61016;DHT22;46902;52.920;6.536;2024-02-21T12:58:14;9.50;99.90
61016;DHT22;46902;52.920;6.536;2024-02-21T13:00:40;9.60;99.90
61016;DHT22;46902;52.920;6.536;2024-02-21T13:03:06;9.50;99.90
61016;DHT22;46902;52.920;6.536;2024-02-21T13:05:31;9.60;99.90
61016;DHT22;46902;52.920;6.536;2024-02-21T13:08:00;9.60;99.90
61016;DHT22;46902;52.920;6.536;2024-02-21T13:10:26;9.60;99.90
61016;DHT22;46902;52.920;6.536;2024-02-21T13:12:51;9.70;99.90
61016;DHT22;46902;52.920;6.536;2024-02-21T13:15:17;9.70;99.90
61016;DHT22;46902;52.920;6.536;2024-02-21T13:17:46;9.70;99.90
61016;DHT22;46902;52.920;6.536;2024-02-21T13:20:13;9.70;99.90
61016;DHT22;46902;52.920;6.536;2024-02-21T13:22:38;9.70;99.90
61016;DHT22;46902;52.920;6.536;2024-02-21T13:25:05;9.80;99.90
61016;DHT22;46902;52.920;6.536;2024-02-21T13:27:33;9.80;99.90
61016;DHT22;46902;52.920;6.536;2024-02-21T13:29:58;9.80;99.90
61016;DHT22;46902;52.920;6.536;2024-02-21T13:32:25;9.70;99.90
61016;DHT22;46902;52.920;6.536;2024-02-21T13:34:51;9.80;99.90
61016;DHT22;46902;52.920;6.536;2024-02-21T13:37:17;9.80;99.90
61016;DHT22;46902;52.920;6.536;2024-02-21T13:39:43;9.80;99.90
61016;DHT22;46902;52.920;6.536;2024-02-21T13:42:09;9.90;99.90
61016;DHT22;46902;52.920;6.536;2024-02-21T13:44:34;9.80;99.90
61016;DHT22;46902;52.920;6.536;2024-02-21T13:47:01;9.90;99.90
61016;DHT22;46902;52.920;6.536;2024-02-21T13:49:27;9.90;99.90
61016;DHT22;46902;52.920;6.536;2024-02-21T13:51:54;9.80;99.90
61016;DHT22;46902;52.920;6.536;2024-02-21T13:54:19;9.80;99.90
61016;DHT22;46902;52.920;6.536;2024-02-21T13:56:46;9.80;99.90
61016;DHT22;46902;52.920;6.536;2024-02-21T13:59:12;9.70;99.90
61016;DHT22;46902;52.920;6.536;2024-02-21T14:01:41;9.80;99.90
61016;DHT22;46902;52.920;6.536;2024-02-21T14:04:08;9.70;99.90
61016;DHT22;46902;52.920;6.536;2024-02-21T14:06:34;9.70;99.90
61016;DHT22;46902;52.920;6.536;2024-02-21T14:08:59;9.60;99.90
61016;DHT22;46902;52.920;6.536;2024-02-21T14:11:25;9.60;99.90
61016;DHT22;46902;52.920;6.536;2024-02-21T14:13:52;9.60;99.90
61016;DHT22;46902;52.920;6.536;2024-02-21T14:16:18;9.60;99.90
61016;DHT22;46902;52.920;6.536;2024-02-21T14:18:43;9.60;99.90
61016;DHT22;46902;52.920;6.536;2024-02-21T14:21:10;9.50;99.90
61016;DHT22;46902;52.920;6.536;2024-02-21T14:23:39;9.60;99.90
61016;DHT22;46902;52.920;6.536;2024-02-21T14:26:05;9.50;99.90
61016;DHT22;46902;52.920;6.536;2024-02-21T14:28:32;9.50;99.90
61016;DHT22;46902;52.920;6.536;2024-02-21T14:30:59;9.50;99.90
61016;DHT22;46902;52.920;6.536;2024-02-21T14:33:26;9.50;99.90
61016;DHT22;46902;52.920;6.536;2024-02-21T14:35:52;9.50;99.90
61016;DHT22;46902;52.920;6.536;2024-02-21T14:38:19;9.50;99.90
61016;DHT22;46902;52.920;6.536;2024-02-21T14:40:45;9.50;99.90
61016;DHT22;46902;52.920;6.536;2024-02-21T14:43:11;9.50;99.90
61016;DHT22;46902;52.920;6.536;2024-02-21T14:45:36;9.60;99.90
61016;DHT22;46902;52.920;6.536;2024-02-21T14:48:03;9.50;99.90
61016;DHT22;46902;52.920;6.536;2024-02-21T14:50:29;9.50;99.90
61016;DHT22;46902;52.920;6.536;2024-02-21T14:52:55;9.50;99.90
61016;DHT22;46902;52.920;6.536;2024-02-21T14:55:20;9.50;99.90
61016;DHT22;46902;52.920;6.536;2024-02-21T14:57:46;9.50;99.90
61016;DHT22;46902;52.920;6.536;2024-02-21T15:00:12;9.50;99.90
61016;DHT22;46902;52.920;6.536;2024-02-21T15:02:38;9.50;99.90
61016;DHT22;46902;52.920;6.536;2024-02-21T15:05:04;9.50;99.90
61016;DHT22;46902;52.920;6.536;2024-02-21T15:07:31;9.50;99.90
61016;DHT22;46902;52.920;6.536;2024-02-21T15:09:57;9.50;99.90
61016;DHT22;46902;52.920;6.536;2024-02-21T15:12:23;9.50;99.90
61016;DHT22;46902;52.920;6.536;2024-02-21T15:14:50;9.50;99.90
61016;DHT22;46902;52.920;6.536;2024-02-21T15:17:15;9.50;99.90
61016;DHT22;46902;52.920;6.536;2024-02-21T15:19:41;9.50;99.90
61016;DHT22;46902;52.920;6.536;2024-02-21T15:22:10;9.50;99.90
61016;DHT22;46902;52.920;6.536;2024-02-21T15:24:38;9.50;99.90
61016;DHT22;46902;52.920;6.536;2024-02-21T15:27:04;9.50;99.90
61016;DHT22;46902;52.920;6.536;2024-02-21T15:29:29;9.50;99.90
61016;DHT22;46902;52.920;6.536;2024-02-21T15:31:55;9.50;99.90
61016;DHT22;46902;52.920;6.536;2024-02-21T15:34:21;9.50;99.90
61016;DHT22;46902;52.920;6.536;2024-02-21T15:36:47;9.50;99.90
61016;DHT22;46902;52.920;6.536;2024-02-21T15:39:13;9.50;99.90
61016;DHT22;46902;52.920;6.536;2024-02-21T15:41:39;9.50;99.90
61016;DHT22;46902;52.920;6.536;2024-02-21T15:44:04;9.50;99.90